sensor_id;sensor_type;location;lat;lon;timestamp;pressure;altitude;pressure_sealevel;temperature;humidity
15405;BME280;7801;48.124;11.590;2023-06-14T00:00:11;94946.56;;;17.54;50.48
15405;BME280;7801;48.124;11.590;2023-06-14T00:02:38;94956.72;;;17.45;50.13
15405;BME280;7801;48.124;11.590;2023-06-14T00:05:05;94956.28;;;17.59;50.63
15405;BME280;7801;48.124;11.590;2023-06-14T00:07:38;94957.31;;;17.54;49.60
15405;BME280;7801;48.124;11.590;2023-06-14T00:10:08;94963.53;;;17.42;50.58
15405;BME280;7801;48.124;11.590;2023-06-14T00:12:33;94960.47;;;17.28;50.26
15405;BME280;7801;48.124;11.590;2023-06-14T00:14:59;94959.69;;;17.28;49.60
15405;BME280;7801;48.124;11.590;2023-06-14T00:17:26;94957.72;;;17.25;51.45
15405;BME280;7801;48.124;11.590;2023-06-14T00:19:55;94950.81;;;17.39;51.61
15405;BME280;7801;48.124;11.590;2023-06-14T00:22:22;94956.09;;;17.36;51.35
15405;BME280;7801;48.124;11.590;2023-06-14T00:24:50;94960.91;;;17.46;51.02
15405;BME280;7801;48.124;11.590;2023-06-14T00:27:15;94951.59;;;17.40;51.47
15405;BME280;7801;48.124;11.590;2023-06-14T00:29:40;94943.72;;;17.47;51.81
15405;BME280;7801;48.124;11.590;2023-06-14T00:32:06;94953.28;;;17.16;51.39
15405;BME280;7801;48.124;11.590;2023-06-14T00:34:32;94950.41;;;17.09;52.96
15405;BME280;7801;48.124;11.590;2023-06-14T00:36:58;94938.00;;;17.17;53.59
15405;BME280;7801;48.124;11.590;2023-06-14T00:39:23;94936.34;;;17.12;52.34
15405;BME280;7801;48.124;11.590;2023-06-14T00:41:48;94949.19;;;17.07;53.07
15405;BME280;7801;48.124;11.590;2023-06-14T00:44:16;94945.13;;;16.69;53.34
15405;BME280;7801;48.124;11.590;2023-06-14T00:46:41;94944.50;;;16.60;53.53
15405;BME280;7801;48.124;11.590;2023-06-14T00:49:07;94945.13;;;16.69;53.95
15405;BME280;7801;48.124;11.590;2023-06-14T00:51:32;94945.69;;;17.03;53.04
15405;BME280;7801;48.124;11.590;2023-06-14T00:53:57;94946.69;;;16.98;52.07
15405;BME280;7801;48.124;11.590;2023-06-14T00:56:23;94947.75;;;17.09;53.39
15405;BME280;7801;48.124;11.590;2023-06-14T00:58:50;94945.06;;;17.09;53.04
15405;BME280;7801;48.124;11.590;2023-06-14T01:01:16;94953.28;;;17.16;52.65
15405;BME280;7801;48.124;11.590;2023-06-14T01:03:41;94953.41;;;17.20;52.52
15405;BME280;7801;48.124;11.590;2023-06-14T01:08:51;94945.81;;;16.94;53.25
15405;BME280;7801;48.124;11.590;2023-06-14T01:11:28;94951.41;;;16.89;53.35
15405;BME280;7801;48.124;11.590;2023-06-14T01:13:57;94947.28;;;16.92;53.54
15405;BME280;7801;48.124;11.590;2023-06-14T01:16:25;94947.63;;;16.90;53.82
15405;BME280;7801;48.124;11.590;2023-06-14T01:18:52;94950.25;;;17.02;53.43
15405;BME280;7801;48.124;11.590;2023-06-14T01:21:25;94947.97;;;16.89;52.59
15405;BME280;7801;48.124;11.590;2023-06-14T01:23:51;94948.37;;;16.75;53.56
15405;BME280;7801;48.124;11.590;2023-06-14T01:26:19;94939.00;;;16.69;53.59
15405;BME280;7801;48.124;11.590;2023-06-14T01:28:45;94943.06;;;16.50;53.43
15405;BME280;7801;48.124;11.590;2023-06-14T01:31:17;94950.19;;;16.46;55.10
15405;BME280;7801;48.124;11.590;2023-06-14T01:33:43;94940.72;;;16.49;54.93
15405;BME280;7801;48.124;11.590;2023-06-14T01:36:09;94938.88;;;16.37;55.44
15405;BME280;7801;48.124;11.590;2023-06-14T01:38:36;94940.63;;;16.45;54.43
15405;BME280;7801;48.124;11.590;2023-06-14T01:41:02;94938.09;;;16.37;53.41
15405;BME280;7801;48.124;11.590;2023-06-14T01:43:30;94936.41;;;16.32;54.50
15405;BME280;7801;48.124;11.590;2023-06-14T01:45:57;94941.38;;;16.46;54.60
15405;BME280;7801;48.124;11.590;2023-06-14T01:48:23;94930.56;;;16.55;54.30
15405;BME280;7801;48.124;11.590;2023-06-14T01:50:49;94931.97;;;16.24;54.13
15405;BME280;7801;48.124;11.590;2023-06-14T01:53:15;94935.84;;;16.39;54.62
15405;BME280;7801;48.124;11.590;2023-06-14T01:55:41;94930.44;;;16.11;56.15
15405;BME280;7801;48.124;11.590;2023-06-14T01:58:08;94930.75;;;16.22;56.19
15405;BME280;7801;48.124;11.590;2023-06-14T02:00:34;94925.31;;;16.18;55.10
15405;BME280;7801;48.124;11.590;2023-06-14T02:03:00;94932.63;;;16.21;54.89
15405;BME280;7801;48.124;11.590;2023-06-14T02:05:25;94927.41;;;16.25;53.18
15405;BME280;7801;48.124;11.590;2023-06-14T02:07:51;94932.41;;;16.26;54.33
15405;BME280;7801;48.124;11.590;2023-06-14T02:10:17;94928.62;;;16.27;55.89
15405;BME280;7801;48.124;11.590;2023-06-14T02:12:43;94931.47;;;16.46;55.28
15405;BME280;7801;48.124;11.590;2023-06-14T02:15:09;94931.06;;;16.32;54.92
15405;BME280;7801;48.124;11.590;2023-06-14T02:17:35;94929.22;;;16.48;53.93
15405;BME280;7801;48.124;11.590;2023-06-14T02:20:01;94935.25;;;16.45;54.69
15405;BME280;7801;48.124;11.590;2023-06-14T02:22:28;94933.84;;;16.36;56.14
15405;BME280;7801;48.124;11.590;2023-06-14T02:24:53;94935.97;;;16.30;54.68
15405;BME280;7801;48.124;11.590;2023-06-14T02:27:19;94929.03;;;16.41;54.99
15405;BME280;7801;48.124;11.590;2023-06-14T02:29:44;94924.37;;;16.26;53.61
15405;BME280;7801;48.124;11.590;2023-06-14T02:32:09;94932.25;;;15.95;54.48
15405;BME280;7801;48.124;11.590;2023-06-14T02:34:35;94924.19;;;16.19;55.43
15405;BME280;7801;48.124;11.590;2023-06-14T02:37:01;94914.53;;;15.90;55.81
15405;BME280;7801;48.124;11.590;2023-06-14T02:39:28;94922.19;;;16.04;56.29
15405;BME280;7801;48.124;11.590;2023-06-14T02:41:54;94931.13;;;16.08;55.54
15405;BME280;7801;48.124;11.590;2023-06-14T02:44:19;94925.13;;;15.99;55.88
15405;BME280;7801;48.124;11.590;2023-06-14T02:46:45;94924.87;;;16.04;55.66
15405;BME280;7801;48.124;11.590;2023-06-14T02:49:11;94928.66;;;16.15;54.86
15405;BME280;7801;48.124;11.590;2023-06-14T02:51:36;94933.03;;;15.83;55.64
15405;BME280;7801;48.124;11.590;2023-06-14T02:54:02;94928.12;;;15.97;55.85
15405;BME280;7801;48.124;11.590;2023-06-14T02:56:27;94932.50;;;15.77;56.27
15405;BME280;7801;48.124;11.590;2023-06-14T02:58:53;94929.03;;;15.65;55.69
15405;BME280;7801;48.124;11.590;2023-06-14T03:01:18;94930.69;;;15.94;56.63
15405;BME280;7801;48.124;11.590;2023-06-14T03:03:45;94932.91;;;16.04;57.64
15405;BME280;7801;48.124;11.590;2023-06-14T03:06:11;94938.25;;;16.16;56.80
15405;BME280;7801;48.124;11.590;2023-06-14T03:08:41;94932.00;;;16.12;55.67
15405;BME280;7801;48.124;11.590;2023-06-14T03:11:07;94935.13;;;16.02;56.42
15405;BME280;7801;48.124;11.590;2023-06-14T03:13:34;94942.09;;;15.78;55.42
15405;BME280;7801;48.124;11.590;2023-06-14T03:16:00;94943.19;;;15.90;57.65
15405;BME280;7801;48.124;11.590;2023-06-14T03:18:29;94942.97;;;15.70;57.33
15405;BME280;7801;48.124;11.590;2023-06-14T03:20:55;94946.88;;;15.73;56.56
15405;BME280;7801;48.124;11.590;2023-06-14T03:23:23;94947.06;;;15.80;56.68
15405;BME280;7801;48.124;11.590;2023-06-14T03:25:48;94946.44;;;15.59;56.91
15405;BME280;7801;48.124;11.590;2023-06-14T03:28:13;94949.41;;;15.81;56.59
15405;BME280;7801;48.124;11.590;2023-06-14T03:30:39;94955.63;;;15.49;56.30
15405;BME280;7801;48.124;11.590;2023-06-14T03:33:04;94956.00;;;15.60;56.20
15405;BME280;7801;48.124;11.590;2023-06-14T03:35:30;94958.13;;;15.66;57.20
15405;BME280;7801;48.124;11.590;2023-06-14T03:37:55;94959.03;;;15.70;57.33
15405;BME280;7801;48.124;11.590;2023-06-14T03:40:21;94955.22;;;15.84;57.04
15405;BME280;7801;48.124;11.590;2023-06-14T03:42:47;94960.12;;;15.81;58.62
15405;BME280;7801;48.124;11.590;2023-06-14T03:45:12;94957.09;;;15.83;58.14
15405;BME280;7801;48.124;11.590;2023-06-14T03:47:37;94953.44;;;15.88;56.63
15405;BME280;7801;48.124;11.590;2023-06-14T03:50:03;94961.91;;;15.90;58.37
15405;BME280;7801;48.124;11.590;2023-06-14T03:52:29;94958.56;;;15.80;58.70
15405;BME280;7801;48.124;11.590;2023-06-14T03:54:55;94963.13;;;15.68;59.60
15405;BME280;7801;48.124;11.590;2023-06-14T03:57:21;94964.69;;;15.57;58.96
15405;BME280;7801;48.124;11.590;2023-06-14T03:59:47;94968.16;;;15.57;60.71
15405;BME280;7801;48.124;11.590;2023-06-14T04:02:12;94975.72;;;15.67;59.74
15405;BME280;7801;48.124;11.590;2023-06-14T04:04:40;94978.84;;;15.81;58.97
15405;BME280;7801;48.124;11.590;2023-06-14T04:07:10;94978.13;;;15.48;58.60
15405;BME280;7801;48.124;11.590;2023-06-14T04:09:37;94971.03;;;15.64;60.18
15405;BME280;7801;48.124;11.590;2023-06-14T04:12:02;94988.63;;;15.53;58.97
15405;BME280;7801;48.124;11.590;2023-06-14T04:14:27;94980.97;;;15.64;58.46
15405;BME280;7801;48.124;11.590;2023-06-14T04:16:53;94990.38;;;15.49;59.64
15405;BME280;7801;48.124;11.590;2023-06-14T04:19:18;94995.69;;;15.70;60.15
15405;BME280;7801;48.124;11.590;2023-06-14T04:21:43;94997.91;;;15.68;59.13
15405;BME280;7801;48.124;11.590;2023-06-14T04:24:09;95001.81;;;15.70;58.89
15405;BME280;7801;48.124;11.590;2023-06-14T04:26:42;95000.19;;;15.45;58.70
15405;BME280;7801;48.124;11.590;2023-06-14T04:29:10;95003.06;;;15.40;59.09
15405;BME280;7801;48.124;11.590;2023-06-14T04:31:39;95007.94;;;15.71;60.06
15405;BME280;7801;48.124;11.590;2023-06-14T04:34:04;95013.41;;;15.74;60.28
15405;BME280;7801;48.124;11.590;2023-06-14T04:36:32;95007.94;;;15.71;60.54
15405;BME280;7801;48.124;11.590;2023-06-14T04:39:03;95006.63;;;15.77;59.80
15405;BME280;7801;48.124;11.590;2023-06-14T04:41:29;95008.37;;;15.73;59.59
15405;BME280;7801;48.124;11.590;2023-06-14T04:43:55;95010.63;;;15.59;59.47
15405;BME280;7801;48.124;11.590;2023-06-14T04:46:23;95004.03;;;15.68;59.31
15405;BME280;7801;48.124;11.590;2023-06-14T04:48:49;95013.06;;;16.00;60.12
15405;BME280;7801;48.124;11.590;2023-06-14T04:51:15;95012.06;;;15.93;59.81
15405;BME280;7801;48.124;11.590;2023-06-14T04:53:41;95018.09;;;15.90;58.65
15405;BME280;7801;48.124;11.590;2023-06-14T04:56:07;95014.09;;;15.96;58.37
15405;BME280;7801;48.124;11.590;2023-06-14T04:58:32;95012.94;;;15.85;59.39
15405;BME280;7801;48.124;11.590;2023-06-14T05:00:57;95028.47;;;15.79;60.33
15405;BME280;7801;48.124;11.590;2023-06-14T05:03:24;95016.97;;;15.91;60.06
15405;BME280;7801;48.124;11.590;2023-06-14T05:05:50;95020.09;;;15.93;60.06
15405;BME280;7801;48.124;11.590;2023-06-14T05:08:16;95018.88;;;16.14;58.08
15405;BME280;7801;48.124;11.590;2023-06-14T05:10:41;95020.44;;;15.91;56.81
15405;BME280;7801;48.124;11.590;2023-06-14T05:13:07;95026.56;;;16.04;58.61
15405;BME280;7801;48.124;11.590;2023-06-14T05:15:32;95022.78;;;16.05;59.41
15405;BME280;7801;48.124;11.590;2023-06-14T05:17:58;95033.03;;;16.15;59.38
15405;BME280;7801;48.124;11.590;2023-06-14T05:20:24;95027.47;;;16.20;57.63
15405;BME280;7801;48.124;11.590;2023-06-14T05:22:51;95031.94;;;16.16;58.88
15405;BME280;7801;48.124;11.590;2023-06-14T05:25:17;95031.47;;;16.14;58.84
15405;BME280;7801;48.124;11.590;2023-06-14T05:27:43;95035.59;;;16.11;59.35
15405;BME280;7801;48.124;11.590;2023-06-14T05:30:08;95035.91;;;16.22;58.53
15405;BME280;7801;48.124;11.590;2023-06-14T05:32:34;95044.28;;;16.33;57.60
15405;BME280;7801;48.124;11.590;2023-06-14T05:34:59;95039.25;;;16.43;59.18
15405;BME280;7801;48.124;11.590;2023-06-14T05:37:25;95044.72;;;16.47;56.83
15405;BME280;7801;48.124;11.590;2023-06-14T05:39:50;95038.22;;;16.60;56.31
15405;BME280;7801;48.124;11.590;2023-06-14T05:42:16;95033.09;;;16.67;58.01
15405;BME280;7801;48.124;11.590;2023-06-14T05:44:41;95041.91;;;16.68;57.12
15405;BME280;7801;48.124;11.590;2023-06-14T05:47:06;95036.63;;;16.83;57.15
15405;BME280;7801;48.124;11.590;2023-06-14T05:49:32;95046.00;;;16.90;57.04
15405;BME280;7801;48.124;11.590;2023-06-14T05:51:57;95039.03;;;17.01;57.51
15405;BME280;7801;48.124;11.590;2023-06-14T05:54:22;95048.53;;;16.98;55.55
15405;BME280;7801;48.124;11.590;2023-06-14T05:56:47;95041.09;;;17.20;55.41
15405;BME280;7801;48.124;11.590;2023-06-14T05:59:13;95037.75;;;17.10;53.54
15405;BME280;7801;48.124;11.590;2023-06-14T06:01:38;95046.91;;;17.09;55.51
15405;BME280;7801;48.124;11.590;2023-06-14T06:04:05;95041.09;;;17.20;53.21
15405;BME280;7801;48.124;11.590;2023-06-14T06:06:31;95050.28;;;17.06;52.68
15405;BME280;7801;48.124;11.590;2023-06-14T06:08:57;95045.69;;;17.07;53.45
15405;BME280;7801;48.124;11.590;2023-06-14T06:11:23;95047.91;;;17.17;54.67
15405;BME280;7801;48.124;11.590;2023-06-14T06:13:48;95043.25;;;17.30;54.56
15405;BME280;7801;48.124;11.590;2023-06-14T06:16:14;95051.75;;;17.32;51.09
15405;BME280;7801;48.124;11.590;2023-06-14T06:18:39;95048.25;;;17.43;54.77
15405;BME280;7801;48.124;11.590;2023-06-14T06:21:06;95056.78;;;17.49;55.10
15405;BME280;7801;48.124;11.590;2023-06-14T06:23:31;95062.47;;;17.60;52.99
15405;BME280;7801;48.124;11.590;2023-06-14T06:25:56;95058.09;;;17.83;54.69
15405;BME280;7801;48.124;11.590;2023-06-14T06:28:22;95061.56;;;17.83;54.04
15405;BME280;7801;48.124;11.590;2023-06-14T06:30:47;95060.00;;;17.82;54.00
15405;BME280;7801;48.124;11.590;2023-06-14T06:33:13;95068.94;;;18.02;54.13
15405;BME280;7801;48.124;11.590;2023-06-14T06:35:39;95067.34;;;18.17;51.11
15405;BME280;7801;48.124;11.590;2023-06-14T06:38:04;95068.16;;;18.02;53.36
15405;BME280;7801;48.124;11.590;2023-06-14T06:40:30;95072.25;;;17.68;51.74
15405;BME280;7801;48.124;11.590;2023-06-14T06:42:55;95068.16;;;17.86;54.01
15405;BME280;7801;48.124;11.590;2023-06-14T06:45:21;95067.09;;;17.91;52.20
15405;BME280;7801;48.124;11.590;2023-06-14T06:47:48;95074.28;;;18.02;51.63
15405;BME280;7801;48.124;11.590;2023-06-14T06:50:13;95070.22;;;18.24;50.50
15405;BME280;7801;48.124;11.590;2023-06-14T06:52:38;95078.97;;;18.21;50.08
15405;BME280;7801;48.124;11.590;2023-06-14T06:55:04;95080.28;;;18.27;50.57
15405;BME280;7801;48.124;11.590;2023-06-14T06:57:29;95078.84;;;18.33;51.48
15405;BME280;7801;48.124;11.590;2023-06-14T06:59:55;95077.91;;;18.41;49.21
15405;BME280;7801;48.124;11.590;2023-06-14T07:02:21;95082.81;;;18.55;49.07
15405;BME280;7801;48.124;11.590;2023-06-14T07:04:46;95076.38;;;18.91;50.90
15405;BME280;7801;48.124;11.590;2023-06-14T07:07:12;95077.34;;;19.02;47.56
15405;BME280;7801;48.124;11.590;2023-06-14T07:09:37;95081.44;;;19.15;50.48
15405;BME280;7801;48.124;11.590;2023-06-14T07:12:03;95074.59;;;19.18;47.25
15405;BME280;7801;48.124;11.590;2023-06-14T07:14:29;95082.12;;;19.28;47.44
15405;BME280;7801;48.124;11.590;2023-06-14T07:16:55;95075.25;;;19.50;46.14
15405;BME280;7801;48.124;11.590;2023-06-14T07:19:20;95084.16;;;19.54;46.21
15405;BME280;7801;48.124;11.590;2023-06-14T07:21:45;95089.19;;;19.55;46.34
15405;BME280;7801;48.124;11.590;2023-06-14T07:24:11;95090.09;;;19.63;46.94
15405;BME280;7801;48.124;11.590;2023-06-14T07:26:36;95085.16;;;19.65;46.20
15405;BME280;7801;48.124;11.590;2023-06-14T07:29:02;95094.34;;;19.45;46.16
15405;BME280;7801;48.124;11.590;2023-06-14T07:31:28;95093.66;;;19.48;47.80
15405;BME280;7801;48.124;11.590;2023-06-14T07:33:53;95097.56;;;19.50;46.65
15405;BME280;7801;48.124;11.590;2023-06-14T07:36:18;95095.34;;;19.56;48.32
15405;BME280;7801;48.124;11.590;2023-06-14T07:38:44;95096.91;;;19.57;46.83
15405;BME280;7801;48.124;11.590;2023-06-14T07:41:10;95103.56;;;19.63;45.91
15405;BME280;7801;48.124;11.590;2023-06-14T07:43:35;95101.72;;;19.67;45.38
15405;BME280;7801;48.124;11.590;2023-06-14T07:46:00;95099.38;;;19.66;45.68
15405;BME280;7801;48.124;11.590;2023-06-14T07:48:27;95102.06;;;19.66;44.68
15405;BME280;7801;48.124;11.590;2023-06-14T07:50:52;95099.09;;;19.71;44.05
15405;BME280;7801;48.124;11.590;2023-06-14T07:53:17;95106.59;;;19.81;42.33
15405;BME280;7801;48.124;11.590;2023-06-14T07:55:43;95101.13;;;19.77;42.03
15405;BME280;7801;48.124;11.590;2023-06-14T07:58:09;95102.44;;;19.64;44.38
15405;BME280;7801;48.124;11.590;2023-06-14T08:00:35;95102.44;;;19.64;42.89
15405;BME280;7801;48.124;11.590;2023-06-14T08:03:01;95099.22;;;19.78;43.59
15405;BME280;7801;48.124;11.590;2023-06-14T08:05:27;95091.91;;;19.78;44.23
15405;BME280;7801;48.124;11.590;2023-06-14T08:07:52;95095.75;;;19.77;43.44
15405;BME280;7801;48.124;11.590;2023-06-14T08:10:18;95099.13;;;19.94;42.23
15405;BME280;7801;48.124;11.590;2023-06-14T08:12:44;95094.31;;;19.83;42.84
15405;BME280;7801;48.124;11.590;2023-06-14T08:15:09;95096.72;;;19.88;42.23
15405;BME280;7801;48.124;11.590;2023-06-14T08:17:35;95094.91;;;19.96;41.54
15405;BME280;7801;48.124;11.590;2023-06-14T08:20:01;95103.50;;;20.02;40.87
15405;BME280;7801;48.124;11.590;2023-06-14T08:22:27;95095.41;;;20.02;38.89
15405;BME280;7801;48.124;11.590;2023-06-14T08:24:56;95097.81;;;20.07;38.78
15405;BME280;7801;48.124;11.590;2023-06-14T08:27:22;95100.37;;;20.00;39.03
15405;BME280;7801;48.124;11.590;2023-06-14T08:29:47;95107.87;;;20.10;38.71
15405;BME280;7801;48.124;11.590;2023-06-14T08:32:13;95108.66;;;20.10;39.89
15405;BME280;7801;48.124;11.590;2023-06-14T08:34:38;95106.03;;;20.14;39.15
15405;BME280;7801;48.124;11.590;2023-06-14T08:37:04;95104.88;;;20.15;38.91
15405;BME280;7801;48.124;11.590;2023-06-14T08:39:31;95113.91;;;20.26;38.40
15405;BME280;7801;48.124;11.590;2023-06-14T08:41:58;95112.78;;;20.27;38.30
15405;BME280;7801;48.124;11.590;2023-06-14T08:44:25;95114.97;;;20.21;38.20
15405;BME280;7801;48.124;11.590;2023-06-14T08:46:51;95114.34;;;20.28;37.92
15405;BME280;7801;48.124;11.590;2023-06-14T08:49:19;95112.19;;;20.37;39.52
15405;BME280;7801;48.124;11.590;2023-06-14T08:51:46;95118.06;;;20.43;39.17
15405;BME280;7801;48.124;11.590;2023-06-14T08:54:24;95116.97;;;20.47;38.96
15405;BME280;7801;48.124;11.590;2023-06-14T08:57:12;95118.97;;;20.50;38.16
15405;BME280;7801;48.124;11.590;2023-06-14T08:59:46;95110.22;;;20.57;37.53
15405;BME280;7801;48.124;11.590;2023-06-14T09:02:20;95110.22;;;20.57;37.25
15405;BME280;7801;48.124;11.590;2023-06-14T09:04:48;95109.94;;;20.66;37.13
15405;BME280;7801;48.124;11.590;2023-06-14T09:07:15;95114.09;;;20.59;37.63
15405;BME280;7801;48.124;11.590;2023-06-14T09:09:44;95109.44;;;20.56;37.07
15405;BME280;7801;48.124;11.590;2023-06-14T09:12:19;95115.03;;;20.71;36.19
15405;BME280;7801;48.124;11.590;2023-06-14T09:14:50;95113.59;;;20.77;36.08
15405;BME280;7801;48.124;11.590;2023-06-14T09:17:17;95116.28;;;20.77;36.57
15405;BME280;7801;48.124;11.590;2023-06-14T09:19:45;95114.50;;;20.88;36.81
15405;BME280;7801;48.124;11.590;2023-06-14T09:22:16;95124.28;;;20.96;36.52
15405;BME280;7801;48.124;11.590;2023-06-14T09:24:44;95120.47;;;21.01;36.49
15405;BME280;7801;48.124;11.590;2023-06-14T09:27:18;95129.31;;;21.01;37.94
15405;BME280;7801;48.124;11.590;2023-06-14T09:29:45;95111.69;;;21.07;37.55
15405;BME280;7801;48.124;11.590;2023-06-14T09:32:11;95126.47;;;21.17;37.12
15405;BME280;7801;48.124;11.590;2023-06-14T09:34:42;95121.94;;;20.95;38.20
15405;BME280;7801;48.124;11.590;2023-06-14T09:37:08;95124.75;;;21.05;37.60
15405;BME280;7801;48.124;11.590;2023-06-14T09:39:52;95130.87;;;21.02;37.75
15405;BME280;7801;48.124;11.590;2023-06-14T09:42:22;95130.03;;;20.95;38.23
15405;BME280;7801;48.124;11.590;2023-06-14T09:45:17;95124.75;;;21.05;37.06
15405;BME280;7801;48.124;11.590;2023-06-14T09:48:02;95130.22;;;20.82;37.05
15405;BME280;7801;48.124;11.590;2023-06-14T09:50:31;95125.81;;;20.71;36.96
15405;BME280;7801;48.124;11.590;2023-06-14T09:53:06;95127.56;;;20.86;37.29
15405;BME280;7801;48.124;11.590;2023-06-14T09:55:36;95135.59;;;21.09;36.97
15405;BME280;7801;48.124;11.590;2023-06-14T09:58:13;95128.34;;;21.39;36.24
15405;BME280;7801;48.124;11.590;2023-06-14T10:03:21;95130.25;;;21.39;36.01
15405;BME280;7801;48.124;11.590;2023-06-14T10:05:52;95138.84;;;21.48;35.91
15405;BME280;7801;48.124;11.590;2023-06-14T10:08:23;95132.25;;;21.45;36.06
15405;BME280;7801;48.124;11.590;2023-06-14T10:10:51;95132.41;;;21.56;34.54
15405;BME280;7801;48.124;11.590;2023-06-14T10:13:18;95130.06;;;21.54;35.37
15405;BME280;7801;48.124;11.590;2023-06-14T10:16:15;95124.78;;;21.65;35.63
15405;BME280;7801;48.124;11.590;2023-06-14T10:21:55;95124.44;;;21.70;36.04
15405;BME280;7801;48.124;11.590;2023-06-14T10:24:40;95125.41;;;21.88;34.84
15405;BME280;7801;48.124;11.590;2023-06-14T10:27:08;95121.53;;;21.86;34.29
15405;BME280;7801;48.124;11.590;2023-06-14T10:32:29;95118.88;;;21.89;34.35
15405;BME280;7801;48.124;11.590;2023-06-14T10:35:20;95115.09;;;21.98;34.53
15405;BME280;7801;48.124;11.590;2023-06-14T10:37:47;95120.41;;;21.90;34.70
15405;BME280;7801;48.124;11.590;2023-06-14T10:40:30;95110.22;;;21.73;35.01
15405;BME280;7801;48.124;11.590;2023-06-14T10:42:58;95116.94;;;21.90;33.95
15405;BME280;7801;48.124;11.590;2023-06-14T10:45:25;95119.97;;;21.85;34.53
15405;BME280;7801;48.124;11.590;2023-06-14T10:47:50;95118.47;;;21.87;35.13
15405;BME280;7801;48.124;11.590;2023-06-14T10:50:27;95118.78;;;21.82;37.23
15405;BME280;7801;48.124;11.590;2023-06-14T10:53:01;95115.34;;;21.85;37.84
15405;BME280;7801;48.124;11.590;2023-06-14T10:55:56;95119.38;;;21.65;38.81
15405;BME280;7801;48.124;11.590;2023-06-14T10:58:41;95132.81;;;21.58;39.14
15405;BME280;7801;48.124;11.590;2023-06-14T11:01:10;95123.22;;;21.64;39.24
15405;BME280;7801;48.124;11.590;2023-06-14T11:04:00;95125.59;;;21.69;39.10
15405;BME280;7801;48.124;11.590;2023-06-14T11:06:50;95130.25;;;21.72;38.20
15405;BME280;7801;48.124;11.590;2023-06-14T11:11:54;95115.66;;;21.77;37.97
15405;BME280;7801;48.124;11.590;2023-06-14T11:14:21;95117.69;;;21.87;36.66
15405;BME280;7801;48.124;11.590;2023-06-14T11:16:52;95116.53;;;21.88;37.50
15405;BME280;7801;48.124;11.590;2023-06-14T11:19:21;95115.19;;;22.05;36.81
15405;BME280;7801;48.124;11.590;2023-06-14T11:21:51;95112.84;;;22.03;36.83
15405;BME280;7801;48.124;11.590;2023-06-14T11:24:19;95115.94;;;22.02;36.51
15405;BME280;7801;48.124;11.590;2023-06-14T11:26:47;95126.00;;;22.05;36.34
15405;BME280;7801;48.124;11.590;2023-06-14T11:29:23;95111.09;;;21.84;36.32
15405;BME280;7801;48.124;11.590;2023-06-14T11:31:55;95120.22;;;21.73;36.20
15405;BME280;7801;48.124;11.590;2023-06-14T11:34:25;95122.16;;;21.72;35.95
15405;BME280;7801;48.124;11.590;2023-06-14T11:36:52;95111.06;;;21.81;35.18
15405;BME280;7801;48.124;11.590;2023-06-14T11:39:25;95108.75;;;21.83;35.71
15405;BME280;7801;48.124;11.590;2023-06-14T11:41:52;95109.53;;;21.83;35.03
15405;BME280;7801;48.124;11.590;2023-06-14T11:44:19;95114.94;;;21.83;34.69
15405;BME280;7801;48.124;11.590;2023-06-14T11:46:50;95125.47;;;21.92;34.91
15405;BME280;7801;48.124;11.590;2023-06-14T11:49:17;95111.25;;;21.99;34.62
15405;BME280;7801;48.124;11.590;2023-06-14T11:51:44;95112.34;;;21.94;34.66
15405;BME280;7801;48.124;11.590;2023-06-14T11:54:16;95105.03;;;21.94;34.23
15405;BME280;7801;48.124;11.590;2023-06-14T11:56:43;95102.97;;;21.84;34.51
15405;BME280;7801;48.124;11.590;2023-06-14T11:59:13;95104.28;;;21.98;34.52
15405;BME280;7801;48.124;11.590;2023-06-14T12:01:43;95104.38;;;22.05;34.11
15405;BME280;7801;48.124;11.590;2023-06-14T12:04:08;95105.03;;;21.94;34.06
15405;BME280;7801;48.124;11.590;2023-06-14T12:06:35;95100.37;;;21.91;34.44
15405;BME280;7801;48.124;11.590;2023-06-14T12:09:09;95117.38;;;21.95;34.62
15405;BME280;7801;48.124;11.590;2023-06-14T12:11:45;95113.53;;;21.97;35.40
15405;BME280;7801;48.124;11.590;2023-06-14T12:14:12;95111.16;;;21.91;35.36
15405;BME280;7801;48.124;11.590;2023-06-14T12:16:41;95106.84;;;21.83;35.57
15405;BME280;7801;48.124;11.590;2023-06-14T12:19:14;95110.25;;;21.77;35.34
15405;BME280;7801;48.124;11.590;2023-06-14T12:21:41;95111.78;;;21.74;35.38
15405;BME280;7801;48.124;11.590;2023-06-14T12:24:08;95118.78;;;21.82;35.42
15405;BME280;7801;48.124;11.590;2023-06-14T12:26:38;95100.47;;;21.65;35.43
15405;BME280;7801;48.124;11.590;2023-06-14T12:29:07;95108.56;;;21.65;35.63
15405;BME280;7801;48.124;11.590;2023-06-14T12:31:39;95099.38;;;21.70;35.72
15405;BME280;7801;48.124;11.590;2023-06-14T12:34:07;95091.84;;;21.89;35.06
15405;BME280;7801;48.124;11.590;2023-06-14T12:36:35;95098.19;;;22.01;34.87
15405;BME280;7801;48.124;11.590;2023-06-14T12:39:12;95098.88;;;21.98;35.08
15405;BME280;7801;48.124;11.590;2023-06-14T12:41:44;95095.78;;;21.95;34.90
15405;BME280;7801;48.124;11.590;2023-06-14T12:44:15;95095.88;;;21.69;35.26
15405;BME280;7801;48.124;11.590;2023-06-14T12:46:44;95104.31;;;21.64;35.41
15405;BME280;7801;48.124;11.590;2023-06-14T12:49:11;95097.72;;;21.58;35.35
15405;BME280;7801;48.124;11.590;2023-06-14T12:51:41;95102.44;;;21.68;35.28
15405;BME280;7801;48.124;11.590;2023-06-14T12:54:08;95098.34;;;21.81;35.36
15405;BME280;7801;48.124;11.590;2023-06-14T12:56:36;95112.00;;;21.95;35.59
15405;BME280;7801;48.124;11.590;2023-06-14T12:59:05;95097.16;;;21.82;35.70
15405;BME280;7801;48.124;11.590;2023-06-14T13:01:31;95104.62;;;21.92;35.74
15405;BME280;7801;48.124;11.590;2023-06-14T13:03:58;95101.19;;;21.95;35.25
15405;BME280;7801;48.124;11.590;2023-06-14T13:06:25;95105.94;;;22.06;35.53
15405;BME280;7801;48.124;11.590;2023-06-14T13:08:53;95112.59;;;22.15;34.66
15405;BME280;7801;48.124;11.590;2023-06-14T13:11:27;95110.63;;;22.12;34.23
15405;BME280;7801;48.124;11.590;2023-06-14T13:13:53;95100.97;;;22.11;34.50
15405;BME280;7801;48.124;11.590;2023-06-14T13:16:22;95115.37;;;22.22;34.08